Time;durP1;ratioP1;P1;durP2;ratioP2;P2;SDS_P1;SDS_P2;PMS_P1;PMS_P2;Temp;Humidity;BMP_temperature;BMP_pressure;BME280_temperature;BME280_humidity;BME280_pressure;Samples;Min_cycle;Max_cycle;Signal;HPM_P1;HPM_P2
2022/07/26 00:00:50;;;;;;;0.32;0.32;;;16.70;99.90;;;;;;5013967;28;20440;-74
2022/07/26 00:03:16;;;;;;;1.20;0.57;;;16.60;99.90;;;;;;5013873;28;20053;-73
2022/07/26 00:05:42;;;;;;;0.93;0.47;;;16.70;99.90;;;;;;5013898;28;20488;-73
2022/07/26 00:08:11;;;;;;;3.05;1.35;;;16.60;99.90;;;;;;5013662;28;20512;-73
2022/07/26 00:10:43;;;;;;;0.40;0.30;;;16.60;99.90;;;;;;5013597;28;20057;-72
2022/07/26 00:13:10;;;;;;;0.20;0.20;;;16.60;99.90;;;;;;5013676;28;20037;-74
2022/07/26 00:15:36;;;;;;;9.13;1.92;;;16.50;99.90;;;;;;5014033;28;20121;-74
2022/07/26 00:18:06;;;;;;;7.53;0.50;;;16.50;99.90;;;;;;5013466;28;20064;-74
2022/07/26 00:20:32;;;;;;;0.00;0.00;;;16.50;99.90;;;;;;5013903;28;20111;-73
2022/07/26 00:23:00;;;;;;;0.20;0.10;;;16.40;99.90;;;;;;5014013;28;20041;-73
2022/07/26 00:25:26;;;;;;;5.80;0.70;;;16.50;99.90;;;;;;5013319;28;20042;-74
2022/07/26 00:27:52;;;;;;;0.65;0.43;;;16.40;99.90;;;;;;5013539;28;20065;-73
2022/07/26 00:30:18;;;;;;;0.63;0.20;;;16.40;99.90;;;;;;5013400;28;20037;-74
2022/07/26 00:32:43;;;;;;;0.60;0.35;;;16.40;99.90;;;;;;5013217;28;20052;-74
2022/07/26 00:35:10;;;;;;;0.08;0.08;;;16.40;99.90;;;;;;5013121;28;20412;-74
2022/07/26 00:37:35;;;;;;;0.00;0.00;;;16.50;99.90;;;;;;5013116;28;20030;-72
2022/07/26 00:40:01;;;;;;;2.28;0.88;;;16.60;99.90;;;;;;5013026;28;20050;-74
2022/07/26 00:42:26;;;;;;;1.05;0.95;;;16.60;99.90;;;;;;5013361;28;20038;-73
2022/07/26 00:44:52;;;;;;;12.10;0.95;;;16.60;99.90;;;;;;5013596;28;20480;-73
2022/07/26 00:47:18;;;;;;;0.30;0.30;;;16.50;99.90;;;;;;5012406;28;20048;-73
2022/07/26 00:49:44;;;;;;;0.10;0.10;;;16.50;99.90;;;;;;5012951;28;20053;-73
2022/07/26 00:52:10;;;;;;;1.27;1.17;;;16.50;99.90;;;;;;5007583;28;20096;-73
2022/07/26 00:54:38;;;;;;;0.15;0.13;;;16.50;99.90;;;;;;4994739;28;20043;-73
2022/07/26 00:57:04;;;;;;;1.65;0.95;;;16.50;99.90;;;;;;5010494;28;20293;-73
2022/07/26 00:59:30;;;;;;;0.85;0.55;;;16.50;99.90;;;;;;4994019;28;20060;-74
2022/07/26 01:01:56;;;;;;;1.23;0.35;;;16.80;99.90;;;;;;5012523;28;20403;-73
2022/07/26 01:04:22;;;;;;;2.30;1.00;;;16.60;99.90;;;;;;5012704;28;20056;-72
2022/07/26 01:06:48;;;;;;;1.55;0.70;;;16.70;99.90;;;;;;5012902;28;20042;-75
2022/07/26 01:09:15;;;;;;;0.88;0.77;;;16.80;99.90;;;;;;5012661;28;20038;-74
2022/07/26 01:11:40;;;;;;;0.38;0.32;;;16.80;99.90;;;;;;5012969;28;20045;-74
2022/07/26 01:14:06;;;;;;;0.55;0.52;;;16.70;99.90;;;;;;5013132;28;20038;-73
2022/07/26 01:16:31;;;;;;;2.40;0.80;;;16.80;99.90;;;;;;5012680;28;20374;-73
2022/07/26 01:18:57;;;;;;;0.47;0.40;;;16.80;99.90;;;;;;5012711;28;20496;-74
2022/07/26 01:21:28;;;;;;;0.47;0.40;;;16.90;99.90;;;;;;5012705;28;20037;-73
2022/07/26 01:23:54;;;;;;;0.28;0.28;;;18.10;99.90;;;;;;5012875;28;20073;-74
2022/07/26 01:26:19;;;;;;;0.10;0.10;;;17.10;99.90;;;;;;5012787;28;20073;-73
2022/07/26 01:28:48;;;;;;;0.10;0.10;;;17.20;99.90;;;;;;5012965;28;20042;-73
2022/07/26 01:31:14;;;;;;;2.83;1.35;;;17.20;99.90;;;;;;5011576;28;20104;-73
2022/07/26 01:33:40;;;;;;;0.45;0.30;;;17.20;99.90;;;;;;5012762;28;20056;-74
2022/07/26 01:36:07;;;;;;;2.05;1.10;;;17.30;99.90;;;;;;5012798;28;20042;-73
2022/07/26 01:38:33;;;;;;;0.22;0.17;;;17.20;99.90;;;;;;5012630;28;20480;-73
2022/07/26 01:40:59;;;;;;;0.00;0.00;;;17.20;99.90;;;;;;5012624;28;20081;-73
2022/07/26 01:43:24;;;;;;;0.43;0.28;;;17.20;99.90;;;;;;5011856;28;20046;-73
2022/07/26 01:45:50;;;;;;;0.15;0.15;;;17.20;99.90;;;;;;5011468;28;20038;-73
2022/07/26 01:48:16;;;;;;;0.38;0.30;;;17.20;99.90;;;;;;5012658;28;20037;-72
2022/07/26 01:50:41;;;;;;;0.10;0.10;;;17.10;99.90;;;;;;5013197;28;20099;-74
2022/07/26 01:53:07;;;;;;;0.00;0.00;;;17.20;99.90;;;;;;5012952;28;20042;-72
2022/07/26 01:58:05;;;;;;;0.10;0.10;;;17.10;99.90;;;;;;5076294;22;20046;-91
2022/07/26 02:00:32;;;;;;;0.00;0.00;;;17.10;99.90;;;;;;5038150;28;20057;-92
2022/07/26 02:02:58;;;;;;;0.32;0.30;;;17.10;99.90;;;;;;5036205;28;20028;-92
2022/07/26 02:05:24;;;;;;;3.20;1.55;;;17.40;99.90;;;;;;5036228;28;20026;-92
2022/07/26 02:07:50;;;;;;;0.00;0.00;;;18.30;99.90;;;;;;5036161;28;20026;-92
2022/07/26 02:10:16;;;;;;;0.90;0.47;;;17.00;99.90;;;;;;5036125;28;20026;-92
2022/07/26 02:12:41;;;;;;;0.00;0.00;;;18.10;99.90;;;;;;5021489;28;20046;-91
2022/07/26 02:15:08;;;;;;;1.27;1.17;;;16.90;99.90;;;;;;5039909;28;20026;-91
2022/07/26 02:17:34;;;;;;;0.08;0.08;;;16.80;99.90;;;;;;5023305;28;20030;-92
2022/07/26 02:19:59;;;;;;;0.40;0.32;;;17.20;99.90;;;;;;5023392;28;20170;-92
2022/07/26 02:22:25;;;;;;;0.28;0.28;;;16.70;99.90;;;;;;5023197;28;20097;-92
2022/07/26 02:24:51;;;;;;;2.47;1.00;;;16.70;99.90;;;;;;5023149;28;20101;-92
2022/07/26 02:27:17;;;;;;;0.40;0.40;;;16.80;99.90;;;;;;5023038;28;20053;-92
2022/07/26 02:29:43;;;;;;;0.15;0.13;;;17.40;99.90;;;;;;5023319;28;20022;-92
2022/07/26 02:32:10;;;;;;;1.13;0.90;;;17.70;99.90;;;;;;5039468;28;20073;-92
2022/07/26 02:34:35;;;;;;;1.77;0.55;;;17.80;99.90;;;;;;5039263;28;20037;-91
2022/07/26 02:37:01;;;;;;;0.30;0.30;;;17.00;99.90;;;;;;5022718;28;20093;-91
2022/07/26 02:39:27;;;;;;;1.55;0.32;;;17.00;99.90;;;;;;5039114;28;20040;-91
2022/07/26 02:41:58;;;;;;;1.98;0.50;;;18.00;99.90;;;;;;5039664;28;20093;-92
2022/07/26 02:44:25;;;;;;;0.30;0.30;;;17.40;99.90;;;;;;5039592;28;20085;-92
2022/07/26 02:46:51;;;;;;;0.25;0.25;;;16.80;99.90;;;;;;5022674;28;20025;-91
2022/07/26 02:49:18;;;;;;;0.10;0.10;;;16.80;99.90;;;;;;5038908;28;20053;-91
2022/07/26 02:51:43;;;;;;;0.25;0.25;;;16.80;99.90;;;;;;5022407;28;20022;-91
2022/07/26 02:54:09;;;;;;;1.33;0.57;;;16.90;99.90;;;;;;5038800;28;20098;-92
2022/07/26 02:56:35;;;;;;;0.10;0.10;;;18.10;99.90;;;;;;5022068;28;20045;-92
2022/07/26 02:59:00;;;;;;;0.50;0.17;;;17.80;99.90;;;;;;5022431;28;20057;-92
2022/07/26 03:01:26;;;;;;;0.00;0.00;;;17.00;99.90;;;;;;5021691;28;20057;-93
2022/07/26 03:03:52;;;;;;;0.40;0.38;;;17.50;99.90;;;;;;5038767;28;20049;-92
2022/07/26 03:06:18;;;;;;;0.15;0.15;;;16.60;99.90;;;;;;5035587;28;20038;-92
2022/07/26 03:08:44;;;;;;;0.00;0.00;;;16.40;99.90;;;;;;5031599;28;20046;-92
2022/07/26 03:11:10;;;;;;;2.30;0.47;;;16.50;99.90;;;;;;5021904;28;20199;-91
2022/07/26 03:13:35;;;;;;;0.00;0.00;;;16.10;99.90;;;;;;5021425;28;20038;-91
2022/07/26 03:16:01;;;;;;;1.08;0.65;;;16.60;99.90;;;;;;5025522;28;20105;-92
2022/07/26 03:18:26;;;;;;;0.10;0.05;;;16.00;99.90;;;;;;5028150;28;20077;-91
2022/07/26 03:20:52;;;;;;;0.00;0.00;;;15.90;99.90;;;;;;5031030;28;20061;-91
2022/07/26 03:23:18;;;;;;;0.40;0.20;;;15.90;99.90;;;;;;5029695;28;20053;-92
2022/07/26 03:25:43;;;;;;;0.00;0.00;;;16.10;99.90;;;;;;5037974;28;20018;-92
2022/07/26 03:28:09;;;;;;;0.00;0.00;;;15.80;99.90;;;;;;5038291;28;20029;-92
2022/07/26 03:30:34;;;;;;;0.00;0.00;;;15.80;99.90;;;;;;5021862;28;20053;-92
2022/07/26 03:33:00;;;;;;;0.52;0.38;;;15.70;99.90;;;;;;5038155;28;20026;-92
2022/07/26 03:35:26;;;;;;;0.10;0.10;;;15.80;99.90;;;;;;5038145;28;20105;-92
2022/07/26 03:37:51;;;;;;;0.65;0.52;;;15.70;99.90;;;;;;5021582;28;20053;-92
2022/07/26 03:40:18;;;;;;;0.00;0.00;;;15.70;99.90;;;;;;5038658;28;20033;-92
2022/07/26 03:42:45;;;;;;;0.50;0.38;;;15.60;99.90;;;;;;5038190;28;20034;-92
2022/07/26 03:45:11;;;;;;;0.00;0.00;;;16.00;99.90;;;;;;5038162;28;20053;-92
2022/07/26 03:47:37;;;;;;;0.00;0.00;;;16.50;99.90;;;;;;5021481;28;20017;-92
2022/07/26 03:50:05;;;;;;;2.92;0.85;;;15.60;99.90;;;;;;5038016;28;20036;-92
2022/07/26 03:52:30;;;;;;;0.17;0.00;;;15.60;99.90;;;;;;5021462;28;20021;-92
2022/07/26 03:54:56;;;;;;;0.00;0.00;;;16.70;99.90;;;;;;5021328;28;20048;-92
2022/07/26 03:57:22;;;;;;;0.10;0.10;;;14.80;99.90;;;;;;5037530;28;20107;-92
2022/07/26 03:59:47;;;;;;;0.10;0.10;;;16.10;99.90;;;;;;5037754;28;20033;-92
2022/07/26 04:02:13;;;;;;;0.00;0.00;;;15.80;99.90;;;;;;5021344;28;20026;-92
2022/07/26 04:04:38;;;;;;;0.00;0.00;;;16.50;99.90;;;;;;5037759;28;20052;-92
2022/07/26 04:07:04;;;;;;;0.00;0.00;;;15.50;99.90;;;;;;5037580;28;20045;-92
2022/07/26 04:09:29;;;;;;;3.10;0.22;;;15.50;99.90;;;;;;5030292;23;20545;-75
2022/07/26 04:11:55;;;;;;;0.00;0.00;;;15.40;99.90;;;;;;5032989;28;20046;-75
2022/07/26 04:14:21;;;;;;;0.00;0.00;;;15.40;99.90;;;;;;5032720;28;20450;-75
2022/07/26 04:16:46;;;;;;;1.35;0.93;;;15.40;99.90;;;;;;5029614;28;20033;-75
2022/07/26 04:19:12;;;;;;;3.20;0.80;;;15.40;99.90;;;;;;5027252;28;20091;-76
2022/07/26 04:21:38;;;;;;;1.33;1.23;;;15.30;99.90;;;;;;5022936;28;20041;-76
2022/07/26 04:24:03;;;;;;;0.10;0.10;;;15.30;99.90;;;;;;5023929;28;20037;-75
2022/07/26 04:26:29;;;;;;;0.00;0.00;;;15.30;99.90;;;;;;5022667;28;20038;-76
2022/07/26 04:28:55;;;;;;;0.40;0.30;;;15.30;99.90;;;;;;5029965;28;20053;-76
2022/07/26 04:31:21;;;;;;;0.32;0.32;;;15.40;99.90;;;;;;5032507;28;20096;-76
2022/07/26 04:33:46;;;;;;;0.00;0.00;;;15.40;99.90;;;;;;5032564;28;20071;-75
2022/07/26 04:36:12;;;;;;;0.00;0.00;;;15.50;99.90;;;;;;5032197;28;20095;-76
2022/07/26 04:38:38;;;;;;;0.00;0.00;;;15.50;99.90;;;;;;5032367;28;20079;-76
2022/07/26 04:41:04;;;;;;;0.10;0.10;;;15.60;99.90;;;;;;5032334;28;20052;-76
2022/07/26 04:43:29;;;;;;;0.00;0.00;;;15.60;99.90;;;;;;5032634;28;20037;-76
2022/07/26 04:45:56;;;;;;;0.10;0.08;;;15.90;99.90;;;;;;5032569;28;20099;-76
2022/07/26 04:48:22;;;;;;;0.10;0.10;;;15.60;99.90;;;;;;5032297;28;20112;-75
2022/07/26 04:50:47;;;;;;;0.00;0.00;;;15.70;99.90;;;;;;5032246;28;20195;-76
2022/07/26 04:53:13;;;;;;;0.00;0.00;;;16.10;99.90;;;;;;5032531;28;20044;-76
2022/07/26 04:55:40;;;;;;;0.00;0.00;;;15.70;99.90;;;;;;5032527;28;20048;-76
2022/07/26 04:58:05;;;;;;;0.38;0.22;;;16.80;99.90;;;;;;5019246;28;20046;-76
2022/07/26 05:00:31;;;;;;;0.70;0.52;;;15.70;99.90;;;;;;5012621;28;20049;-76
2022/07/26 05:02:59;;;;;;;0.00;0.00;;;15.70;99.90;;;;;;5000050;28;20038;-76
2022/07/26 05:05:27;;;;;;;0.30;0.30;;;15.70;99.90;;;;;;4993253;28;20050;-76
2022/07/26 05:07:55;;;;;;;0.32;0.25;;;15.70;99.90;;;;;;4993008;28;20042;-76
2022/07/26 05:10:26;;;;;;;0.00;0.00;;;15.70;99.90;;;;;;4993179;28;20043;-76
2022/07/26 05:12:52;;;;;;;0.22;0.15;;;15.80;99.90;;;;;;5011478;28;20050;-76
2022/07/26 05:15:18;;;;;;;0.05;0.05;;;15.70;99.90;;;;;;5012753;28;20045;-76
2022/07/26 05:17:43;;;;;;;0.10;0.10;;;15.70;99.90;;;;;;5012434;28;20042;-76
2022/07/26 05:20:11;;;;;;;0.00;0.00;;;15.60;99.90;;;;;;5009812;28;20045;-76
2022/07/26 05:22:37;;;;;;;0.03;0.03;;;15.70;99.90;;;;;;5009288;28;20046;-76
2022/07/26 05:25:04;;;;;;;0.00;0.00;;;15.70;99.90;;;;;;5009476;28;20149;-76
2022/07/26 05:27:30;;;;;;;0.00;0.00;;;15.70;99.90;;;;;;5000255;28;20057;-77
2022/07/26 05:29:56;;;;;;;0.40;0.22;;;15.70;99.90;;;;;;4989680;28;20118;-76
2022/07/26 05:32:23;;;;;;;0.32;0.28;;;15.80;99.90;;;;;;5003066;28;20512;-76
2022/07/26 05:34:48;;;;;;;0.00;0.00;;;15.80;99.90;;;;;;5010384;28;20120;-76
2022/07/26 05:37:14;;;;;;;0.00;0.00;;;15.80;99.90;;;;;;5011241;28;20121;-77
2022/07/26 05:39:39;;;;;;;14.98;0.40;;;15.90;99.90;;;;;;5011938;28;20418;-77
2022/07/26 05:42:05;;;;;;;0.00;0.00;;;16.00;99.90;;;;;;5012156;28;20516;-76
2022/07/26 05:44:31;;;;;;;0.28;0.28;;;16.10;99.90;;;;;;5012374;28;20408;-76
2022/07/26 05:46:57;;;;;;;1.35;0.38;;;16.20;99.90;;;;;;5014608;28;20064;-76
2022/07/26 05:49:24;;;;;;;0.60;0.10;;;16.20;99.90;;;;;;5014740;28;20377;-76
2022/07/26 05:51:50;;;;;;;0.10;0.10;;;16.10;99.90;;;;;;5016225;28;20432;-76
2022/07/26 05:54:17;;;;;;;0.03;0.03;;;16.00;99.90;;;;;;5015964;28;20480;-76
2022/07/26 05:56:43;;;;;;;0.00;0.00;;;15.80;99.90;;;;;;5015899;28;20052;-76
2022/07/26 05:59:08;;;;;;;0.00;0.00;;;15.70;99.90;;;;;;5015899;28;20042;-76
2022/07/26 06:01:34;;;;;;;0.55;0.55;;;15.50;99.90;;;;;;5016100;28;20096;-76
2022/07/26 06:04:00;;;;;;;0.20;0.17;;;15.30;99.90;;;;;;5015878;28;20042;-76
2022/07/26 06:06:26;;;;;;;0.00;0.00;;;15.40;99.90;;;;;;5015705;28;20465;-75
2022/07/26 06:08:51;;;;;;;1.15;0.10;;;15.30;99.90;;;;;;5015390;28;20078;-75
2022/07/26 06:11:17;;;;;;;0.57;0.52;;;15.40;99.90;;;;;;5015639;28;20049;-75
2022/07/26 06:13:42;;;;;;;0.00;0.00;;;15.40;99.90;;;;;;5015567;28;20465;-76
2022/07/26 06:16:08;;;;;;;0.00;0.00;;;15.50;99.90;;;;;;5014309;28;20124;-75
2022/07/26 06:18:34;;;;;;;0.00;0.00;;;15.60;99.90;;;;;;5014172;28;20069;-76
2022/07/26 06:21:00;;;;;;;3.25;0.32;;;15.60;99.90;;;;;;5015644;28;20038;-75
2022/07/26 06:23:25;;;;;;;0.00;0.00;;;15.70;99.90;;;;;;5015393;28;20066;-75
2022/07/26 06:25:51;;;;;;;0.00;0.00;;;15.70;99.90;;;;;;5015683;28;20050;-75
2022/07/26 06:28:17;;;;;;;0.00;0.00;;;15.80;99.90;;;;;;5015318;28;20416;-76
2022/07/26 06:30:43;;;;;;;0.00;0.00;;;16.00;99.90;;;;;;5014714;28;20401;-75
2022/07/26 06:33:10;;;;;;;0.00;0.00;;;16.10;99.90;;;;;;5013099;28;20558;-75
2022/07/26 06:35:37;;;;;;;0.00;0.00;;;16.50;99.90;;;;;;5013249;28;20400;-75
2022/07/26 06:38:04;;;;;;;0.00;0.00;;;17.00;99.90;;;;;;5005896;28;20112;-75
2022/07/26 06:40:29;;;;;;;0.00;0.00;;;17.20;99.90;;;;;;5001692;28;20073;-75
2022/07/26 06:42:55;;;;;;;0.00;0.00;;;17.30;99.90;;;;;;4993840;28;20050;-75
2022/07/26 06:45:21;;;;;;;0.10;0.10;;;17.30;99.90;;;;;;4996178;28;20053;-75
2022/07/26 06:47:46;;;;;;;5.38;0.80;;;16.90;99.90;;;;;;4995477;28;20038;-75
2022/07/26 06:50:12;;;;;;;0.15;0.15;;;16.60;99.90;;;;;;4994733;28;20409;-75
2022/07/26 06:52:37;;;;;;;0.00;0.00;;;16.20;99.90;;;;;;4995145;28;20433;-75
2022/07/26 06:55:04;;;;;;;0.00;0.00;;;16.10;99.90;;;;;;4995072;28;20038;-75
2022/07/26 06:57:30;;;;;;;0.00;0.00;;;16.10;99.90;;;;;;4993375;28;20493;-75
2022/07/26 06:59:55;;;;;;;0.00;0.00;;;16.10;99.90;;;;;;4993803;28;20134;-75
2022/07/26 07:02:21;;;;;;;0.20;0.20;;;16.10;99.90;;;;;;4996217;28;20117;-76
2022/07/26 07:04:47;;;;;;;0.00;0.00;;;16.00;99.90;;;;;;4998439;28;20046;-75
2022/07/26 07:07:12;;;;;;;0.00;0.00;;;15.80;99.90;;;;;;4995511;28;20048;-74
2022/07/26 07:09:38;;;;;;;0.35;0.35;;;15.80;99.90;;;;;;4996631;28;20417;-75
2022/07/26 07:12:05;;;;;;;3.92;0.30;;;15.90;99.90;;;;;;4996631;28;20093;-75
2022/07/26 07:14:31;;;;;;;0.10;0.10;;;16.10;99.90;;;;;;4996308;28;20056;-75
2022/07/26 07:16:57;;;;;;;0.00;0.00;;;16.20;99.90;;;;;;4998627;28;20054;-75
2022/07/26 07:19:23;;;;;;;0.00;0.00;;;16.30;99.90;;;;;;4998004;28;20062;-75
2022/07/26 07:21:49;;;;;;;0.00;0.00;;;16.40;99.90;;;;;;4997124;28;20101;-75
2022/07/26 07:24:15;;;;;;;0.20;0.10;;;16.50;99.90;;;;;;4997501;28;20046;-76
2022/07/26 07:26:41;;;;;;;0.00;0.00;;;16.80;99.90;;;;;;4998421;28;20045;-75
2022/07/26 07:29:10;;;;;;;0.93;0.52;;;17.20;99.90;;;;;;4998973;28;20038;-75
2022/07/26 07:31:36;;;;;;;0.00;0.00;;;17.70;99.90;;;;;;4998484;28;20129;-75
2022/07/26 07:34:02;;;;;;;0.30;0.28;;;17.60;99.90;;;;;;4995722;28;20096;-75
2022/07/26 07:36:27;;;;;;;0.30;0.30;;;18.20;99.90;;;;;;4998305;28;20085;-75
2022/07/26 07:38:53;;;;;;;0.00;0.00;;;18.30;99.90;;;;;;4996042;28;20054;-75
2022/07/26 07:41:19;;;;;;;0.20;0.00;;;18.50;99.90;;;;;;4996400;28;20140;-75
2022/07/26 07:43:44;;;;;;;0.00;0.00;;;18.30;99.90;;;;;;4995910;28;20046;-75
2022/07/26 07:46:11;;;;;;;0.40;0.00;;;18.00;99.90;;;;;;4996012;28;20069;-75
2022/07/26 07:48:39;;;;;;;0.10;0.10;;;17.80;99.90;;;;;;4996617;28;20527;-76
2022/07/26 07:51:05;;;;;;;0.00;0.00;;;17.70;99.90;;;;;;4994396;28;20108;-75
2022/07/26 07:53:31;;;;;;;0.00;0.00;;;17.80;99.90;;;;;;5010885;28;20091;-76
2022/07/26 07:55:57;;;;;;;0.00;0.00;;;18.20;99.90;;;;;;5023272;28;20141;-75
2022/07/26 07:58:22;;;;;;;0.00;0.00;;;18.70;99.90;;;;;;5022990;28;20042;-75
2022/07/26 08:00:48;;;;;;;0.00;0.00;;;19.00;99.90;;;;;;5020151;28;20535;-75
2022/07/26 08:03:13;;;;;;;0.00;0.00;;;19.30;99.90;;;;;;5022521;28;20441;-75
2022/07/26 08:05:39;;;;;;;8.10;0.30;;;19.60;99.90;;;;;;5020670;28;20113;-76
2022/07/26 08:08:05;;;;;;;0.00;0.00;;;19.90;99.90;;;;;;5015639;28;20108;-75
2022/07/26 08:10:30;;;;;;;0.65;0.55;;;19.90;99.90;;;;;;5015036;28;20050;-76
2022/07/26 08:12:56;;;;;;;0.00;0.00;;;19.70;99.90;;;;;;5015907;28;20038;-76
2022/07/26 08:15:22;;;;;;;0.63;0.45;;;19.50;99.90;;;;;;5014448;28;20049;-76
2022/07/26 08:17:48;;;;;;;0.30;0.30;;;19.10;99.90;;;;;;5014211;28;20042;-75
2022/07/26 08:20:14;;;;;;;0.00;0.00;;;18.90;99.90;;;;;;5021692;28;20064;-75
2022/07/26 08:22:40;;;;;;;0.20;0.15;;;18.60;99.90;;;;;;5015542;28;20145;-75
2022/07/26 08:25:06;;;;;;;0.00;0.00;;;18.50;99.90;;;;;;5014884;28;20038;-76
2022/07/26 08:27:32;;;;;;;0.10;0.10;;;18.30;99.90;;;;;;5015815;28;20076;-76
2022/07/26 08:29:57;;;;;;;0.13;0.10;;;18.60;99.90;;;;;;5010952;28;20041;-76
2022/07/26 08:32:23;;;;;;;0.03;0.03;;;19.00;99.90;;;;;;5011242;28;20040;-76
2022/07/26 08:34:48;;;;;;;0.00;0.00;;;19.10;99.90;;;;;;5015123;28;20463;-76
2022/07/26 08:37:14;;;;;;;0.20;0.13;;;19.20;99.90;;;;;;5012204;28;20042;-75
2022/07/26 08:39:39;;;;;;;0.00;0.00;;;19.10;99.90;;;;;;5013090;28;20038;-76
2022/07/26 08:42:16;;;;;;;0.20;0.20;;;19.40;99.90;;;;;;5013724;28;20168;-76
2022/07/26 08:44:43;;;;;;;0.00;0.00;;;19.20;99.90;;;;;;5015255;28;20129;-76
2022/07/26 08:47:17;;;;;;;0.00;0.00;;;19.50;99.90;;;;;;5015956;28;20057;-75
2022/07/26 08:49:44;;;;;;;0.43;0.43;;;19.90;99.90;;;;;;5014914;28;20574;-75
2022/07/26 08:52:11;;;;;;;1.27;0.45;;;20.00;99.90;;;;;;5014160;28;20053;-76
2022/07/26 08:54:45;;;;;;;0.38;0.35;;;20.20;99.90;;;;;;5012597;28;20057;-76
2022/07/26 08:57:11;;;;;;;7.00;0.45;;;20.60;99.90;;;;;;5012613;28;20052;-75
2022/07/26 08:59:37;;;;;;;6.65;1.08;;;20.60;99.90;;;;;;5011715;28;20053;-75
2022/07/26 09:02:09;;;;;;;0.15;0.10;;;20.60;99.90;;;;;;5011104;28;20464;-76
2022/07/26 09:04:39;;;;;;;0.10;0.10;;;20.80;99.90;;;;;;5010845;28;20050;-75
2022/07/26 09:07:06;;;;;;;0.10;0.05;;;20.60;99.90;;;;;;5012021;28;20177;-76
2022/07/26 09:09:35;;;;;;;1.10;0.45;;;20.70;99.90;;;;;;5010895;28;20054;-76
2022/07/26 09:12:14;;;;;;;0.00;0.00;;;20.60;99.90;;;;;;5011448;28;20049;-75
2022/07/26 09:14:40;;;;;;;0.00;0.00;;;20.30;99.90;;;;;;5029496;28;20479;-75
2022/07/26 09:17:06;;;;;;;0.00;0.00;;;19.80;99.90;;;;;;5030969;28;20053;-75
2022/07/26 09:19:31;;;;;;;0.00;0.00;;;19.30;99.90;;;;;;5007483;28;20049;-75
2022/07/26 09:22:09;;;;;;;0.00;0.00;;;19.00;99.90;;;;;;5008006;28;20508;-75
2022/07/26 09:24:40;;;;;;;0.00;0.00;;;19.00;99.90;;;;;;5015662;28;20046;-74
2022/07/26 09:27:08;;;;;;;0.00;0.00;;;19.40;99.90;;;;;;5014998;28;20038;-75
2022/07/26 09:29:49;;;;;;;0.00;0.00;;;19.60;99.90;;;;;;5014680;28;20058;-75
2022/07/26 09:32:16;;;;;;;0.98;0.57;;;19.90;99.90;;;;;;5015102;28;20058;-75
2022/07/26 09:34:44;;;;;;;0.00;0.00;;;20.20;99.90;;;;;;5014451;28;20133;-75
2022/07/26 09:37:09;;;;;;;13.85;0.45;;;19.80;99.90;;;;;;5015575;28;20034;-76
2022/07/26 09:39:59;;;;;;;0.00;0.00;;;19.20;99.90;;;;;;5018621;28;20069;-76
2022/07/26 09:42:26;;;;;;;2.50;1.20;;;17.80;99.90;;;;;;5015288;28;20050;-76
2022/07/26 09:50:17;;;;;;;0.10;0.00;;;17.20;99.90;;;;;;5005334;23;20625;-88
2022/07/26 09:53:11;;;;;;;0.00;0.00;;;17.80;99.90;;;;;;5013092;28;20049;-90
2022/07/26 09:55:43;;;;;;;0.00;0.00;;;18.40;99.90;;;;;;5001534;28;20117;-89
2022/07/26 09:58:15;;;;;;;0.20;0.17;;;18.70;99.90;;;;;;4999368;28;20078;-88
2022/07/26 10:00:42;;;;;;;7.03;1.63;;;18.90;99.90;;;;;;5005864;28;20046;-88
2022/07/26 10:03:07;;;;;;;1.27;0.35;;;18.80;99.90;;;;;;4990446;28;20062;-88
2022/07/26 10:05:33;;;;;;;0.38;0.35;;;19.60;99.90;;;;;;4988925;28;20192;-88
2022/07/26 10:07:59;;;;;;;5.90;1.65;;;19.40;99.90;;;;;;4997164;28;20054;-88
2022/07/26 10:10:33;;;;;;;0.10;0.10;;;19.80;99.90;;;;;;4997471;28;20465;-88
2022/07/26 10:13:01;;;;;;;0.30;0.20;;;20.20;99.90;;;;;;4997069;28;20060;-86
2022/07/26 10:15:56;;;;;;;0.00;0.00;;;20.60;99.90;;;;;;4998526;28;20129;-86
2022/07/26 10:18:37;;;;;;;0.05;0.05;;;20.90;99.90;;;;;;4974902;28;20059;-87
2022/07/26 10:21:24;;;;;;;3.05;1.20;;;20.60;99.90;;;;;;4996818;28;20046;-86
2022/07/26 10:24:00;;;;;;;0.22;0.22;;;20.20;99.90;;;;;;4984141;28;20054;-86
2022/07/26 10:26:31;;;;;;;2.95;0.88;;;20.30;99.90;;;;;;4980259;28;20042;-88
2022/07/26 10:29:15;;;;;;;1.65;0.80;;;21.10;99.90;;;;;;4978814;28;20057;-87
2022/07/26 10:32:01;;;;;;;0.10;0.10;;;21.00;99.90;;;;;;4992164;28;20125;-84
2022/07/26 10:34:33;;;;;;;3.92;1.48;;;20.70;99.90;;;;;;4987907;28;20448;-86
2022/07/26 10:37:01;;;;;;;0.00;0.00;;;21.50;99.90;;;;;;4999733;28;20361;-85
2022/07/26 10:39:27;;;;;;;0.20;0.20;;;21.80;94.60;;;;;;4998331;28;20038;-85
2022/07/26 10:42:05;;;;;;;1.58;0.20;;;22.20;92.10;;;;;;4997864;28;20484;-85
2022/07/26 10:44:34;;;;;;;0.13;0.10;;;22.10;80.10;;;;;;4998315;28;20046;-85
2022/07/26 10:47:06;;;;;;;0.00;0.00;;;22.50;91.90;;;;;;4998679;28;20034;-84
2022/07/26 10:49:55;;;;;;;1.50;0.60;;;22.50;64.10;;;;;;4997003;28;20057;-87
2022/07/26 10:52:29;;;;;;;0.00;0.00;;;21.80;65.90;;;;;;4998722;28;20054;-85
2022/07/26 10:55:03;;;;;;;6.65;0.98;;;21.80;65.70;;;;;;4997164;28;20046;-86
2022/07/26 10:57:30;;;;;;;0.03;0.03;;;21.70;85.90;;;;;;4996831;28;20057;-87
2022/07/26 10:59:57;;;;;;;10.02;0.85;;;21.80;89.10;;;;;;4996411;28;20054;-86
2022/07/26 11:02:27;;;;;;;0.50;0.32;;;22.00;68.60;;;;;;4998654;28;20047;-87
2022/07/26 11:05:13;;;;;;;0.15;0.10;;;21.80;73.60;;;;;;4998722;28;20057;-85
2022/07/26 11:08:04;;;;;;;0.35;0.30;;;21.70;75.70;;;;;;4997191;28;20511;-83
2022/07/26 11:10:38;;;;;;;0.00;0.00;;;22.10;59.10;;;;;;4980192;28;20053;-87
2022/07/26 11:13:15;;;;;;;0.08;0.08;;;22.90;90.90;;;;;;4998217;28;20050;-87
2022/07/26 11:16:00;;;;;;;8.50;0.50;;;23.70;65.20;;;;;;4998491;28;20061;-87
2022/07/26 11:18:31;;;;;;;1.75;0.30;;;23.70;35.60;;;;;;4998263;28;20104;-87
2022/07/26 11:21:08;;;;;;;0.20;0.20;;;22.90;31.80;;;;;;4998674;28;20042;-85
2022/07/26 11:23:35;;;;;;;0.20;0.20;;;22.60;47.30;;;;;;4996654;28;20042;-86
2022/07/26 11:26:23;;;;;;;0.13;0.13;;;21.90;37.10;;;;;;4997427;28;20055;-86
2022/07/26 11:28:55;;;;;;;0.60;0.47;;;21.50;47.80;;;;;;4997264;28;20050;-86
2022/07/26 11:31:27;;;;;;;0.20;0.20;;;21.50;54.60;;;;;;4982619;28;20034;-89
2022/07/26 11:33:54;;;;;;;0.38;0.22;;;22.20;49.60;;;;;;4998901;28;20084;-90
2022/07/26 11:36:33;;;;;;;0.90;0.55;;;22.80;55.10;;;;;;5000940;28;20046;-88
2022/07/26 11:39:00;;;;;;;0.00;0.00;;;22.40;31.70;;;;;;4999841;28;20489;-90
2022/07/26 11:41:27;;;;;;;0.10;0.10;;;22.60;36.80;;;;;;4998760;28;20097;-89
2022/07/26 11:43:55;;;;;;;0.25;0.25;;;22.70;23.80;;;;;;4999768;28;20050;-90
2022/07/26 11:46:21;;;;;;;0.50;0.22;;;22.30;16.40;;;;;;4997271;28;20057;-89
2022/07/26 11:48:49;;;;;;;0.00;0.00;;;23.10;20.60;;;;;;4999417;28;20054;-88
2022/07/26 11:51:22;;;;;;;0.40;0.28;;;22.20;32.50;;;;;;5000670;28;20094;-89
2022/07/26 11:53:50;;;;;;;0.77;0.47;;;21.80;38.20;;;;;;4996068;28;20060;-89
2022/07/26 11:56:21;;;;;;;0.45;0.22;;;22.30;27.80;;;;;;4994300;28;20042;-89
2022/07/26 11:58:49;;;;;;;1.55;0.13;;;22.90;33.40;;;;;;4994401;28;20584;-90
2022/07/26 12:01:17;;;;;;;0.00;0.00;;;23.00;16.70;;;;;;4996010;28;20042;-89
2022/07/26 12:03:48;;;;;;;0.20;0.20;;;23.40;20.20;;;;;;4994516;28;20061;-89
2022/07/26 12:06:22;;;;;;;0.10;0.10;;;23.40;11.60;;;;;;4994813;28;20054;-89
2022/07/26 12:08:49;;;;;;;0.00;0.00;;;23.60;16.80;;;;;;4994775;28;20395;-89
2022/07/26 12:11:16;;;;;;;0.00;0.00;;;23.70;9.50;;;;;;4996069;28;20054;-89
2022/07/26 12:13:49;;;;;;;0.03;0.03;;;23.30;16.80;;;;;;4996526;28;20130;-89
2022/07/26 12:16:44;;;;;;;0.22;0.15;;;22.50;13.40;;;;;;4994444;28;20073;-90
2022/07/26 12:19:29;;;;;;;0.00;0.00;;;21.70;23.00;;;;;;4994700;28;20053;-89
2022/07/26 12:22:10;;;;;;;0.30;0.22;;;21.70;36.70;;;;;;4995306;28;20116;-89
2022/07/26 12:24:44;;;;;;;0.30;0.20;;;22.20;30.30;;;;;;4994657;28;20061;-89
2022/07/26 12:27:18;;;;;;;0.40;0.20;;;22.00;25.80;;;;;;4995316;28;20046;-88
2022/07/26 12:29:45;;;;;;;0.08;0.08;;;22.00;23.20;;;;;;4996622;28;20046;-89
2022/07/26 12:32:29;;;;;;;0.30;0.20;;;22.60;16.90;;;;;;4995730;28;20042;-89
2022/07/26 12:35:24;;;;;;;10.32;0.25;;;22.00;21.20;;;;;;4995479;28;20054;-89
2022/07/26 12:37:52;;;;;;;2.42;0.98;;;22.60;31.80;;;;;;4990142;28;20054;-87
2022/07/26 12:40:24;;;;;;;0.38;0.17;;;22.70;10.70;;;;;;4979279;28;20551;-88
2022/07/26 12:42:50;;;;;;;0.00;0.00;;;22.50;15.10;;;;;;4994975;28;20121;-88
2022/07/26 12:45:20;;;;;;;0.22;0.22;;;22.80;12.90;;;;;;4996513;28;20131;-88
2022/07/26 12:47:49;;;;;;;0.03;0.03;;;22.20;12.00;;;;;;4995373;28;20132;-87
2022/07/26 12:50:16;;;;;;;0.00;0.00;;;22.80;16.40;;;;;;4997473;28;20069;-87
2022/07/26 12:52:44;;;;;;;0.43;0.30;;;22.80;7.90;;;;;;4995487;28;20046;-87
2022/07/26 12:55:15;;;;;;;0.95;0.63;;;23.30;12.60;;;;;;4994777;28;20038;-87
2022/07/26 12:57:41;;;;;;;0.00;0.00;;;23.70;6.80;;;;;;5005058;28;20050;-87
2022/07/26 13:00:09;;;;;;;0.20;0.20;;;22.80;6.40;;;;;;5014671;28;20427;-86